.
WxDataArchive / Data Records for 2009-01-13
2009-01-12 January 2009 2009-01-14

Data Records for Tuesday, 13 January 2009

Time	Temp	Chill	HIndex	Humid	Dewpt	 Wind 	HiWind	WindDir	Rain 	Barom 
-----	----	-----	------	-----	-----	------	------	-------	-----	----- 
00:00	29.8	29.8	29.8	92	27.8	2	4	68	0.00	29.957 
00:05	30.0	30.0	30.0	92	28.0	2	5	90	0.00	29.953 
00:10	30.1	30.1	30.1	92	28.1	1	5	90	0.00	29.952 
00:15	30.3	30.3	30.3	93	28.5	1	4	90	0.00	29.946 
00:20	30.4	30.4	30.4	93	28.6	1	4	112	0.00	29.944 
00:25	30.6	30.6	30.6	93	28.8	1	2	338	0.00	29.942 
00:30	30.7	30.7	30.7	93	28.9	1	4	112	0.00	29.935 
00:35	30.9	30.9	30.9	93	29.1	1	3	112	0.00	29.933 
00:40	31.0	31.0	31.0	93	29.2	1	3	270	0.00	29.929 
00:45	31.3	31.3	31.3	93	29.5	1	4	248	0.00	29.924 
00:50	31.5	31.5	31.5	93	29.7	1	5	68	0.00	29.919 
00:55	31.6	31.6	31.6	93	29.8	1	4	248	0.00	29.916 
01:00	31.8	31.8	31.8	94	30.3	1	3	248	0.00	29.911 
01:05	32.1	32.1	32.1	94	30.6	2	4	270	0.00	29.910 
01:10	32.4	32.4	32.4	94	30.9	2	9	270	0.00	29.912 
01:15	32.5	32.5	32.5	94	31.0	1	9	248	0.00	29.903 
01:20	32.5	32.5	32.5	94	31.0	2	5	270	0.00	29.899 
01:25	32.7	32.7	32.7	93	30.9	1	4	270	0.00	29.893 
01:30	32.7	32.7	32.7	93	30.9	2	6	248	0.00	29.890 
01:35	32.8	32.8	32.8	93	31.0	2	6	248	0.00	29.888 
01:40	32.9	32.9	32.9	93	31.1	2	6	248	0.00	29.886 
01:45	33.1	33.1	33.1	93	31.3	2	6	270	0.00	29.880 
01:50	33.2	33.2	33.2	93	31.4	2	6	248	0.00	29.876 
01:55	33.2	33.2	33.2	93	31.4	2	5	248	0.00	29.875 
02:00	33.4	33.4	33.4	92	31.3	2	5	292	0.00	29.871 
02:05	33.4	33.4	33.4	92	31.3	2	9	225	0.00	29.870 
02:10	33.5	33.5	33.5	92	31.4	3	7	248	0.00	29.868 
02:15	33.7	33.7	33.7	92	31.6	2	6	248	0.00	29.866 
02:20	33.7	33.7	33.7	92	31.6	3	9	248	0.00	29.866 
02:25	33.7	33.7	33.7	92	31.6	2	6	248	0.00	29.867 
02:30	33.7	33.7	33.7	92	31.6	3	7	248	0.00	29.867 
02:35	33.7	33.7	33.7	92	31.6	3	9	248	0.00	29.868 
02:40	33.7	33.7	33.7	92	31.6	2	7	248	0.00	29.868 
02:45	33.7	33.7	33.7	92	31.6	3	10	248	0.00	29.868 
02:50	33.7	33.7	33.7	92	31.6	2	5	248	0.00	29.867 
02:55	33.7	33.7	33.7	92	31.6	3	9	248	0.00	29.867 
03:00	33.5	33.5	33.5	92	31.4	3	8	248	0.00	29.867 
03:05	33.4	33.4	33.4	92	31.3	2	5	248	0.00	29.870 
03:10	33.4	33.4	33.4	92	31.3	1	7	248	0.00	29.869 
03:15	33.4	33.4	33.4	92	31.3	2	10	248	0.00	29.869 
03:20	33.2	33.2	33.2	92	31.1	2	7	248	0.00	29.866 
03:25	33.2	33.2	33.2	92	31.1	2	6	270	0.00	29.866 
03:30	33.2	33.2	33.2	93	31.4	3	5	248	0.00	29.862 
03:35	33.2	33.2	33.2	93	31.4	2	4	248	0.00	29.861 
03:40	33.2	33.2	33.2	93	31.4	2	4	248	0.00	29.858 
03:45	33.2	33.2	33.2	93	31.4	3	6	248	0.00	29.862 
03:50	33.2	33.2	33.2	93	31.4	3	9	248	0.00	29.862 
03:55	33.2	33.2	33.2	93	31.4	3	13	248	0.00	29.861 
04:00	33.4	33.4	33.4	93	31.6	3	7	248	0.00	29.858 
04:05	33.4	33.4	33.4	93	31.6	3	9	248	0.00	29.856 
04:10	33.4	33.4	33.4	93	31.6	3	6	248	0.00	29.856 
04:15	33.4	33.4	33.4	93	31.6	3	10	248	0.00	29.855 
04:20	33.4	33.4	33.4	94	31.9	3	6	248	0.00	29.855 
04:25	33.4	33.4	33.4	94	31.9	3	7	248	0.00	29.854 
04:30	33.4	33.4	33.4	94	31.9	2	5	248	0.00	29.853 
04:35	33.4	33.4	33.4	94	31.9	2	6	248	0.00	29.853 
04:40	33.2	33.2	33.2	94	31.7	2	6	248	0.00	29.852 
04:45	33.2	33.2	33.2	94	31.7	1	5	248	0.00	29.850 
04:50	33.2	33.2	33.2	94	31.7	1	4	248	0.00	29.843 
04:55	33.2	33.2	33.2	94	31.7	2	6	248	0.00	29.840 
05:00	33.2	33.2	33.2	94	31.7	2	5	248	0.00	29.841 
05:05	33.2	33.2	33.2	94	31.7	2	7	248	0.00	29.841 
05:10	33.1	33.1	33.1	94	31.6	0	2	248	0.00	29.840 
05:15	33.1	33.1	33.1	94	31.6	0	2	248	0.00	29.839 
05:20	33.1	33.1	33.1	93	31.3	1	4	248	0.00	29.840 
05:25	32.9	32.9	32.9	93	31.1	1	4	225	0.00	29.839 
05:30	32.9	32.9	32.9	93	31.1	1	5	248	0.00	29.838 
05:35	32.9	32.9	32.9	93	31.1	1	5	248	0.00	29.839 
05:40	32.9	32.9	32.9	93	31.1	2	7	248	0.00	29.839 
05:45	32.8	29.0	32.8	93	31.0	4	11	248	0.00	29.840 
05:50	32.7	32.7	32.7	92	30.6	3	9	248	0.00	29.840 
05:55	32.7	32.7	32.7	91	30.4	3	7	270	0.00	29.840 
06:00	32.7	28.9	32.7	90	30.1	4	10	248	0.00	29.844 
06:05	32.8	28.0	32.8	88	29.6	5	12	270	0.00	29.843 
06:10	32.8	29.0	32.8	87	29.4	4	10	248	0.00	29.841 
06:15	32.8	32.8	32.8	86	29.1	3	11	248	0.00	29.839 
06:20	32.8	29.0	32.8	85	28.8	4	12	270	0.00	29.839 
06:25	32.8	32.8	32.8	84	28.5	3	6	270	0.00	29.839 
06:30	32.8	29.0	32.8	84	28.5	4	9	248	0.00	29.839 
06:35	32.8	32.8	32.8	84	28.5	2	5	248	0.00	29.840 
06:40	32.7	32.7	32.7	83	28.1	3	10	248	0.00	29.839 
06:45	32.7	28.9	32.7	83	28.1	4	15	270	0.00	29.839 
06:50	32.5	27.7	32.5	83	27.9	5	10	270	0.00	29.842 
06:55	32.5	26.8	32.5	83	27.9	6	12	248	0.00	29.842 
07:00	32.4	27.5	32.4	83	27.8	5	11	270	0.00	29.847 
07:05	32.2	27.3	32.2	83	27.6	5	14	270	0.00	29.850 
07:10	32.1	28.2	32.1	83	27.5	4	7	270	0.00	29.853 
07:15	31.8	27.8	31.8	84	27.5	4	7	248	0.00	29.854 
07:20	31.6	27.6	31.6	85	27.6	4	13	248	0.00	29.856 
07:25	31.3	27.3	31.3	85	27.3	4	9	270	0.00	29.857 
07:30	31.2	31.2	31.2	86	27.5	3	6	248	0.00	29.858 
07:35	31.0	25.9	31.0	86	27.3	5	13	270	0.00	29.860 
07:40	30.9	26.8	30.9	87	27.5	4	9	270	0.00	29.860 
07:45	30.7	25.5	30.7	87	27.3	5	17	270	0.00	29.864 
07:50	30.6	25.4	30.6	87	27.2	5	15	270	0.00	29.866 
07:55	30.4	25.2	30.4	88	27.3	5	12	270	0.00	29.873 
08:00	29.5	25.2	29.5	87	26.1	4	10	270	0.00	29.880 
08:05	28.8	24.4	28.8	86	25.2	4	8	270	0.00	29.885 
08:10	28.2	23.7	28.2	85	24.3	4	12	292	0.00	29.890 
08:15	27.9	27.9	27.9	85	24.0	3	10	315	0.00	29.892 
08:20	27.6	23.0	27.6	84	23.4	4	9	270	0.00	29.893 
08:25	27.5	27.5	27.5	84	23.3	3	7	292	0.00	29.898 
08:30	27.3	22.6	27.3	83	22.8	4	7	270	0.00	29.902 
08:35	27.3	27.3	27.3	83	22.8	3	6	270	0.00	29.906 
08:40	27.2	22.5	27.2	82	22.4	4	9	270	0.00	29.908 
08:45	27.0	27.0	27.0	81	22.0	3	6	270	0.00	29.909 
08:50	26.9	21.1	26.9	80	21.6	5	10	270	0.00	29.910 
08:55	26.6	21.8	26.6	76	20.1	4	9	292	0.00	29.916 
09:00	26.4	21.6	26.4	79	20.8	4	10	270	0.00	29.919 
09:05	26.3	26.3	26.3	79	20.7	3	6	270	0.00	29.914 
09:10	26.1	26.1	26.1	80	20.8	3	6	248	0.00	29.919 
09:15	26.0	21.1	26.0	79	20.4	4	7	270	0.00	29.921 
09:20	25.8	25.8	25.8	79	20.2	3	6	270	0.00	29.923 
09:25	25.6	20.7	25.6	79	20.0	4	8	270	0.00	29.926 
09:30	25.6	25.6	25.6	79	20.0	3	6	270	0.00	29.926 
09:35	25.4	25.4	25.4	79	19.8	3	7	270	0.00	29.931 
09:40	25.3	20.3	25.3	79	19.7	4	6	270	0.00	29.933 
09:45	25.1	20.1	25.1	80	19.8	4	9	270	0.00	29.938 
09:50	25.0	20.0	25.0	81	20.0	4	7	270	0.00	29.939 
09:55	24.8	19.8	24.8	82	20.1	4	8	270	0.00	29.942 
10:00	24.7	19.6	24.7	82	20.0	4	12	270	0.00	29.946 
10:05	24.5	24.5	24.5	83	20.1	3	7	270	0.00	29.947 
10:10	24.4	24.4	24.4	83	20.0	3	12	270	0.00	29.950 
10:15	24.1	19.0	24.1	83	19.7	4	14	270	0.00	29.955 
10:20	23.9	23.9	23.9	83	19.5	3	6	270	0.00	29.956 
10:25	23.8	18.6	23.8	83	19.4	4	9	270	0.00	29.958 
10:30	23.8	18.6	23.8	83	19.4	4	7	270	0.00	29.965 
10:35	23.9	18.7	23.9	82	19.2	4	9	270	0.00	29.969 
10:40	24.1	19.0	24.1	82	19.4	4	9	270	0.00	29.971 
10:45	24.2	24.2	24.2	81	19.2	3	5	270	0.00	29.972 
10:50	24.4	19.3	24.4	81	19.4	4	7	270	0.00	29.973 
10:55	24.7	24.7	24.7	81	19.7	3	6	270	0.00	29.978 
11:00	25.0	25.0	25.0	80	19.7	3	5	270	0.00	29.982 
11:05	25.1	25.1	25.1	79	19.5	3	6	270	0.00	29.983 
11:10	25.6	25.6	25.6	78	19.7	3	5	270	0.00	29.984 
11:15	25.8	20.9	25.8	76	19.3	4	9	270	0.00	29.984 
11:20	25.8	20.9	25.8	72	18.0	4	10	270	0.00	29.985 
11:25	25.8	25.8	25.8	68	16.7	3	12	270	0.00	29.987 
11:30	25.7	19.7	25.7	62	14.5	5	10	270	0.00	29.997 
11:35	25.4	20.5	25.4	61	13.9	4	11	315	0.00	30.000 
11:40	25.1	20.1	25.1	60	13.2	4	14	315	0.00	30.002 
11:45	25.4	25.4	25.4	60	13.5	3	12	270	0.00	30.009 
11:50	25.1	20.1	25.1	59	12.8	4	10	315	0.00	30.009 
11:55	25.3	25.3	25.3	60	13.4	3	6	292	0.00	30.010 
12:00	24.8	19.8	24.8	59	12.5	4	11	315	0.00	30.014 
12:05	24.7	24.7	24.7	59	12.4	3	9	315	0.00	30.012 
12:10	24.7	24.7	24.7	61	13.2	3	10	315	0.00	30.012 
12:15	24.8	24.8	24.8	61	13.3	2	5	315	0.00	30.014 
12:20	24.7	24.7	24.7	59	12.4	3	6	270	0.00	30.015 
12:25	24.5	24.5	24.5	59	12.3	3	7	270	0.00	30.016 
12:30	24.7	24.7	24.7	60	12.8	3	11	315	0.00	30.016 
12:35	25.0	25.0	25.0	60	13.1	2	9	315	0.00	30.015 
12:40	25.3	25.3	25.3	59	13.0	2	6	315	0.00	30.016 
12:45	24.5	24.5	24.5	56	11.1	3	9	270	0.00	30.018 
12:50	23.5	23.5	23.5	55	9.7	3	9	315	0.00	30.020 
12:55	22.5	17.1	22.5	55	8.8	4	14	292	0.00	30.020 
13:00	22.4	22.4	22.4	57	9.5	3	10	292	0.00	30.020 
13:05	22.1	22.1	22.1	56	8.8	3	9	315	0.00	30.026 
13:10	21.9	21.9	21.9	55	8.2	3	10	315	0.00	30.027 
13:15	21.9	21.9	21.9	55	8.2	3	11	315	0.00	30.027 
13:20	21.8	21.8	21.8	55	8.1	3	6	338	0.00	30.030 
13:25	21.9	21.9	21.9	56	8.6	3	9	270	0.00	30.031 
13:30	22.4	22.4	22.4	56	9.1	2	6	270	0.00	30.031 
13:35	22.4	22.4	22.4	56	9.1	3	7	315	0.00	30.030 
13:40	22.5	22.5	22.5	57	9.6	3	6	338	0.00	30.030 
13:45	22.7	22.7	22.7	56	9.4	2	6	270	0.00	30.029 
13:50	22.7	22.7	22.7	56	9.4	2	8	315	0.00	30.032 
13:55	22.2	22.2	22.2	57	9.3	3	9	338	0.00	30.034 
14:00	22.1	22.1	22.1	58	9.6	2	5	315	0.00	30.036 
14:05	21.9	21.9	21.9	58	9.4	2	6	315	0.00	30.035 
14:10	21.8	21.8	21.8	58	9.3	2	7	270	0.00	30.036 
14:15	21.6	21.6	21.6	59	9.5	2	7	315	0.00	30.041 
14:20	21.6	21.6	21.6	61	10.3	2	8	315	0.00	30.045 
14:25	21.4	21.4	21.4	62	10.4	2	5	270	0.00	30.049 
14:30	21.4	21.4	21.4	62	10.4	2	7	270	0.00	30.050 
14:35	21.4	21.4	21.4	64	11.1	3	10	270	0.00	30.052 
14:40	21.6	21.6	21.6	66	12.0	2	5	315	0.00	30.054 
14:45	22.2	22.2	22.2	67	12.9	2	6	248	0.00	30.056 
14:50	21.8	21.8	21.8	67	12.6	2	5	270	0.00	30.058 
14:55	21.4	21.4	21.4	65	11.5	2	6	292	0.00	30.058 
15:00	21.4	21.4	21.4	66	11.8	2	5	292	0.00	30.064 
15:05	21.1	21.1	21.1	67	11.9	2	8	270	0.00	30.065 
15:10	20.6	20.6	20.6	71	12.7	2	6	292	0.00	30.068 
15:15	20.2	20.2	20.2	75	13.6	2	6	315	0.00	30.075 
15:20	20.0	20.0	20.0	77	14.0	1	6	292	0.00	30.073 
15:25	20.0	20.0	20.0	78	14.3	3	7	338	0.00	30.080 
15:30	19.9	19.9	19.9	78	14.2	2	6	292	0.00	30.084 
15:35	19.4	19.4	19.4	72	11.9	3	9	315	0.00	30.086 
15:40	19.2	19.2	19.2	68	10.4	3	7	315	0.00	30.094 
15:45	19.2	19.2	19.2	68	10.4	3	15	292	0.00	30.098 
15:50	19.4	19.4	19.4	68	10.6	2	10	315	0.00	30.100 
15:55	19.4	19.4	19.4	68	10.6	3	7	270	0.00	30.102 
16:00	19.2	19.2	19.2	66	9.7	2	6	315	0.00	30.109 
16:05	19.2	19.2	19.2	66	9.7	2	7	270	0.00	30.112 
16:10	19.5	19.5	19.5	66	10.0	1	5	292	0.00	30.113 
16:15	19.5	19.5	19.5	63	9.0	3	7	338	0.00	30.114 
16:20	19.2	19.2	19.2	61	8.0	2	5	270	0.00	30.117 
16:25	19.1	19.1	19.1	63	8.6	3	9	315	0.00	30.123 
16:30	18.8	18.8	18.8	62	8.0	3	9	292	0.00	30.129 
16:35	18.4	18.4	18.4	60	6.9	2	6	315	0.00	30.129 
16:40	18.0	18.0	18.0	62	7.2	2	6	315	0.00	30.132 
16:45	17.8	17.8	17.8	62	7.0	2	4	292	0.00	30.134 
16:50	17.7	17.7	17.7	63	7.3	2	4	248	0.00	30.135 
16:55	17.7	17.7	17.7	64	7.6	1	4	315	0.00	30.141 
17:00	17.3	17.3	17.3	63	6.9	3	7	292	0.00	30.145 
17:05	17.2	17.2	17.2	62	6.4	2	7	292	0.00	30.147 
17:10	17.0	17.0	17.0	61	5.9	2	9	315	0.00	30.148 
17:15	16.9	16.9	16.9	60	5.4	3	12	270	0.00	30.148 
17:20	16.7	16.7	16.7	60	5.3	3	10	270	0.00	30.150 
17:25	16.5	16.5	16.5	62	5.8	2	5	292	0.00	30.153 
17:30	16.4	16.4	16.4	64	6.4	2	9	270	0.00	30.159 
17:35	16.2	16.2	16.2	64	6.2	2	7	270	0.00	30.162 
17:40	16.2	16.2	16.2	64	6.2	2	6	270	0.00	30.163 
17:45	16.2	16.2	16.2	63	5.9	3	6	270	0.00	30.168 
17:50	16.2	16.2	16.2	63	5.9	2	5	338	0.00	30.170 
17:55	16.1	16.1	16.1	63	5.8	2	3	315	0.00	30.174 
18:00	15.9	15.9	15.9	63	5.6	3	6	270	0.00	30.179 
18:05	15.7	15.7	15.7	64	5.7	2	5	248	0.00	30.179 
18:10	15.6	15.6	15.6	66	6.3	2	5	270	0.00	30.181 
18:15	15.2	15.2	15.2	67	6.2	2	5	270	0.00	30.184 
18:20	15.1	15.1	15.1	67	6.1	2	5	292	0.00	30.186 
18:25	14.8	14.8	14.8	68	6.2	1	5	270	0.00	30.187 
18:30	14.6	14.6	14.6	68	6.0	2	5	270	0.00	30.189 
18:35	14.3	14.3	14.3	68	5.7	1	3	292	0.00	30.189 
18:40	14.1	14.1	14.1	69	5.8	1	3	270	0.00	30.193 
18:45	13.8	13.8	13.8	70	5.9	2	7	315	0.00	30.192 
18:50	13.6	13.6	13.6	71	6.0	1	4	270	0.00	30.196 
18:55	13.3	13.3	13.3	72	6.0	2	5	270	0.00	30.198 
19:00	13.1	13.1	13.1	72	5.8	1	4	270	0.00	30.201 
19:05	12.8	12.8	12.8	73	5.8	2	4	270	0.00	30.202 
19:10	12.4	12.4	12.4	73	5.4	1	4	248	0.00	30.204 
19:15	12.3	12.3	12.3	73	5.3	2	3	248	0.00	30.204 
19:20	12.1	12.1	12.1	73	5.1	2	4	248	0.00	30.208 
19:25	11.9	11.9	11.9	73	4.9	2	5	315	0.00	30.211 
19:30	11.7	11.7	11.7	73	4.7	1	4	270	0.00	30.213 
19:35	11.4	11.4	11.4	73	4.5	1	4	270	0.00	30.216 
19:40	11.2	11.2	11.2	73	4.3	1	3	270	0.00	30.220 
19:45	11.1	11.1	11.1	73	4.2	1	3	270	0.00	30.220 
19:50	10.9	10.9	10.9	73	4.0	1	3	270	0.00	30.220 
19:55	10.7	10.7	10.7	73	3.8	0	2	248	0.00	30.221 
20:00	10.4	10.4	10.4	73	3.5	0	2	248	0.00	30.221 
20:05	10.0	10.0	10.0	73	3.1	1	2	248	0.00	30.225 
20:10	9.9	9.9	9.9	73	3.0	1	2	248	0.00	30.226 
20:15	9.7	9.7	9.7	73	2.8	1	2	270	0.00	30.228 
20:20	9.5	9.5	9.5	72	2.3	0	2	270	0.00	30.233 
20:25	9.3	9.3	9.3	72	2.1	0	2	270	0.00	30.239 
20:30	9.2	9.2	9.2	73	2.3	1	4	270	0.00	30.242 
20:35	9.0	9.0	9.0	72	1.8	1	3	248	0.00	30.244 
20:40	8.8	8.8	8.8	72	1.6	1	3	248	0.00	30.241 
20:45	8.6	8.6	8.6	72	1.5	1	3	248	0.00	30.242 
20:50	8.6	8.6	8.6	72	1.5	1	3	248	0.00	30.243 
20:55	8.4	8.4	8.4	72	1.3	0	1	225	0.00	30.243 
21:00	8.3	8.3	8.3	73	1.5	1	3	248	0.00	30.246 
21:05	8.1	8.1	8.1	73	1.3	0	3	248	0.00	30.246 
21:10	7.9	7.9	7.9	73	1.1	0	2	248	0.00	30.250 
21:15	7.7	7.7	7.7	73	0.9	0	3	248	0.00	30.251 
21:20	7.7	7.7	7.7	73	0.9	1	3	248	0.00	30.257 
21:25	7.6	7.6	7.6	73	0.8	0	2	248	0.00	30.250 
21:30	7.4	7.4	7.4	73	0.6	0	1	248	0.00	30.247 
21:35	7.2	7.2	7.2	73	0.4	0	2	248	0.00	30.251 
21:40	7.2	7.2	7.2	74	0.7	0	1	248	0.00	30.250 
21:45	7.0	7.0	7.0	74	0.5	0	1	248	0.00	30.248 
21:50	6.9	6.9	6.9	74	0.4	0	1	248	0.00	30.248 
21:55	6.7	6.7	6.7	74	0.2	1	4	248	0.00	30.245 
22:00	6.7	6.7	6.7	74	0.2	0	1	248	0.00	30.244 
22:05	6.5	6.5	6.5	75	0.3	0	1	248	0.00	30.245 
22:10	6.3	6.3	6.3	75	0.1	0	1	248	0.00	30.253 
22:15	6.1	6.1	6.1	75	-0.1	0	1	248	0.00	30.259 
22:20	6.0	6.0	6.0	75	-0.2	0	2	248	0.00	30.260 
22:25	6.0	6.0	6.0	75	-0.2	0	3	248	0.00	30.253 
22:30	5.8	5.8	5.8	75	-0.4	1	2	248	0.00	30.250 
22:35	5.8	5.8	5.8	75	-0.4	0	3	248	0.00	30.253 
22:40	5.6	5.6	5.6	75	-0.6	1	2	248	0.00	30.254 
22:45	5.6	5.6	5.6	75	-0.6	0	3	248	0.00	30.254 
22:50	5.4	5.4	5.4	75	-0.8	1	2	248	0.00	30.259 
22:55	5.2	5.2	5.2	75	-1.0	1	3	248	0.00	30.253 
23:00	5.2	5.2	5.2	75	-1.0	1	3	248	0.00	30.249 
23:05	5.2	5.2	5.2	74	-1.2	1	4	248	0.00	30.248 
23:10	5.0	5.0	5.0	74	-1.4	1	3	248	0.00	30.249 
23:15	4.8	4.8	4.8	74	-1.6	0	1	248	0.00	30.247 
23:20	4.7	4.7	4.7	74	-1.7	0	2	248	0.00	30.248 
23:25	4.7	4.7	4.7	74	-1.7	0	2	248	0.00	30.248 
23:30	4.5	4.5	4.5	75	-1.6	1	3	248	0.00	30.259 
23:35	4.5	4.5	4.5	75	-1.6	1	3	248	0.00	30.262 
23:40	4.3	4.3	4.3	74	-2.1	1	2	248	0.00	30.262 
23:45	4.1	4.1	4.1	74	-2.3	1	4	248	0.00	30.264 
23:50	3.9	3.9	3.9	74	-2.5	1	3	270	0.00	30.267 
23:55	3.7	3.7	3.7	74	-2.7	0	3	248	0.00	30.268 

CoCoRaHS
IN-AL-39
A2 Web Hosting
Creative Commons License
GoDaddy
search engine by freefind advanced

loaded 2018-11-15 05:45:27 • last modified 2010-11-18 10:43:29
Privacy PolicyDisclaimer
• wx.awcolley.com is powered by PmWiki v.2002016 •
• all content (unless otherwise noted) © 2018 A W Colley